Latest Coastal Weather Observations for Merimbula

IDN60701

Issued at 11:01 pm EST Friday 28 August 2015 (issued every 10 minutes, with the page automatically refreshed every 10 minutes)

About coastal observations | Map of coastal stations | Coastal observations for NSW | Marine services | Other Formats
Station Details ID: 069147 Name: MERIMBULA AIRPORT AWS Lat: -36.91 Lon: 149.90 Height: 1.5 m
Data from the previous 72 hours. | See also: Recent months at Merimbula
Date/Time
EST
Temp

°C
Wind Pressure Rain
since 9am
mm
Weather Cloud Vis
km
Sea
Height
m
Swell
Dir
 
Speed
knots
Gust
knots
hPa Trend Height
m
Period
s
Dir
28/10:30pm 9.9 WSW 7 11 1023.0 - 0.2 - Cloudy 10 - - - -
28/10:00pm 9.9 WSW 5 8 1023.1 - 0.2 - Partly cloudy 10 - - - -
28/09:30pm 10.0 SW 5 7 1023.3 - 0.2 - Partly cloudy 10 - - - -
28/09:00pm 10.1 SW 6 8 1023.3 - 0.2 - Cloudy 10 - - - -
28/08:30pm 10.0 W 5 8 1023.1 - 0.2 - Cloudy 10 - - - -
28/08:00pm 10.1 W 4 6 1022.8 - 0.2 - Partly cloudy 10 - - - -
28/07:30pm 10.3 SW 7 10 1022.7 - 0.2 - Partly cloudy 10 - - - -
28/07:00pm 10.6 SW 6 10 1022.6 - 0.2 - Cloudy 10 - - - -
28/06:30pm 10.7 SW 4 6 1022.3 - 0.2 - Partly cloudy 10 - - - -
28/06:00pm 10.9 S 7 13 1022.1 - 0.2 - Cloudy 10 - - - -
28/05:30pm 11.3 S 8 11 1021.5 - 0.2 - Cloudy 10 - - - -
28/05:00pm 12.1 S 9 16 1021.0 - 0.2 - Partly cloudy 10 - - - -
28/04:30pm 12.2 S 3 6 1020.7 - 0.2 - Partly cloudy 10 - - - -
28/04:00pm 12.1 SSW 9 14 1020.6 - 0.2 - Partly cloudy 10 - - - -
28/03:30pm 12.8 S 13 17 1020.2 - 0.2 - Partly cloudy 10 - - - -
28/03:00pm 13.9 S 10 16 1019.9 - 0.2 - Cloudy 10 - - - -
28/02:30pm 15.0 SSW 11 17 1019.6 - 0.2 - Partly cloudy 10 - - - -
28/02:00pm 14.8 SW 11 20 1019.5 - 0.2 - Partly cloudy 10 - - - -
28/01:30pm 13.6 SW 13 21 1019.6 - 0.2 - Partly cloudy 10 - - - -
28/01:00pm 13.8 WSW 7 11 1019.6 - 0.2 - Partly cloudy 10 - - - -
28/12:30pm 15.5 SSW 12 19 1019.5 - 0.0 - Partly cloudy 10 - - - -
28/12:00pm 14.2 SW 7 11 1019.9 - 0.0 - Mostly cloudy 10 - - - -
28/11:30am 13.9 SW 10 18 1020.1 - 0.0 - Partly cloudy 10 - - - -
28/11:00am 15.4 SW 11 18 1019.9 - 0.0 - Partly cloudy 10 - - - -
28/10:30am 14.5 SSW 12 18 1019.5 - 0.0 - Partly cloudy 10 - - - -
28/10:00am 13.2 SW 10 16 1019.5 - 0.0 - Partly cloudy 10 - - - -
28/09:30am 14.2 SW 11 17 1019.1 - 0.0 - Partly cloudy 10 - - - -
28/09:00am 13.4 SW 7 11 1018.9 - 18.8 Recent precip. Partly cloudy 10 - - - -
28/08:30am 12.4 SW 10 21 1018.7 - 18.8 - Partly cloudy 9 - - - -
28/08:00am 12.8 SW 7 13 1018.2 - 18.6 - Partly cloudy 10 - - - -
28/07:30am 12.0 SW 8 14 1017.9 - 18.6 - Partly cloudy 10 - - - -
28/07:00am 11.9 SW 11 19 1017.2 - 18.6 - Partly cloudy 10 - - - -
28/06:30am 11.8 SW 9 15 1016.7 - 18.6 - Partly cloudy 10 - - - -
28/06:00am 11.5 SW 7 11 1016.1 - 18.6 - Cloudy 10 - - - -
28/05:30am 11.2 WSW 7 13 1015.6 - 18.6 - - 10 - - - -
28/05:00am 10.6 W 5 7 1015.3 - 18.6 - Partly cloudy 10 - - - -
28/04:42am 10.5 WNW 7 10 1015.1 - 18.0 - Partly cloudy 7 - - - -
28/04:30am 10.5 W 7 10 1015.1 - 17.6 - Partly cloudy 4 - - - -
28/04:24am 10.5 W 7 10 1015.0 - 17.4 - Partly cloudy 5 - - - -
28/04:16am 10.5 W 7 9 1014.9 - 16.8 - Partly cloudy 10 - - - -
28/04:06am 10.5 W 7 11 1014.8 - 16.6 - Partly cloudy 5 - - - -
28/04:00am 10.5 W 7 12 1014.7 - 16.4 - Partly cloudy 7 - - - -
28/03:39am 10.4 W 9 13 1014.5 - 15.4 - Partly cloudy 9 - - - -
28/03:30am 10.3 W 10 14 1014.4 - 15.2 - Partly cloudy 6 - - - -
28/03:23am 10.4 W 9 13 1014.3 - 14.6 - Partly cloudy 5 - - - -
28/03:00am 10.4 W 9 13 1014.5 - 13.6 Rain Cloudy 9 - - - -
28/02:30am 10.5 W 9 13 1014.7 - 12.2 - Partly cloudy 10 - - - -
28/02:00am 10.6 W 11 16 1014.9 - 11.2 - Partly cloudy 10 - - - -
28/01:30am 10.8 W 10 15 1014.9 - 10.6 - Partly cloudy 10 - - - -
28/01:00am 11.2 W 11 17 1015.3 - 10.2 - Partly cloudy 10 - - - -
28/12:30am 11.6 W 10 14 1015.3 - 9.8 - Partly cloudy 10 - - - -
28/12:00am 11.6 W 8 12 1015.6 - 9.8 - Cloudy 10 - - - -
 
Date/Time
EST
Temp

°C
Wind Pressure Rain
since 9am
mm
Weather Cloud Vis
km
Sea
Height
m
Swell
Dir
 
Speed
knots
Gust
knots
hPa Trend Height
m
Period
s
Dir
27/11:30pm 11.5 W 6 8 1015.7 - 9.8 - Cloudy 10 - - - -
27/11:00pm 11.5 WSW 8 13 1016.0 - 9.8 - Cloudy 10 - - - -
27/10:30pm 11.1 WSW 8 12 1016.3 - 9.8 - Cloudy 10 - - - -
27/10:00pm 10.6 WNW 6 9 1016.3 - 9.8 - Partly cloudy 10 - - - -
27/09:30pm 11.1 WNW 5 7 1016.4 - 9.8 - - 10 - - - -
27/09:00pm 11.0 WSW 5 7 1016.4 - 9.8 - Mostly clear 10 - - - -
27/08:30pm 11.5 CALM 0 0 1016.5 - 9.8 - Partly cloudy 10 - - - -
27/08:00pm 11.6 CALM 0 0 1016.7 - 9.8 - Partly cloudy 9 - - - -
27/07:30pm 11.6 CALM 0 0 1016.7 - 9.4 - - 10 - - - -
27/07:00pm 11.9 SSW 6 8 1016.4 - 8.4 - Partly cloudy 6 - - - -
27/06:30pm 12.2 WSW 7 12 1016.2 - 7.0 - Partly cloudy 8 - - - -
27/06:00pm 12.8 SW 7 10 1015.6 - 5.6 - Cloudy 10 - - - -
27/05:30pm 13.2 SSW 7 11 1015.2 - 5.6 - Partly cloudy 10 - - - -
27/05:00pm 13.4 SSW 8 11 1014.6 - 5.6 - Cloudy 10 - - - -
27/04:30pm 13.6 S 7 10 1014.6 - 5.6 - Cloudy 10 - - - -
27/04:00pm 13.7 S 10 14 1014.5 - 5.6 - Partly cloudy 10 - - - -
27/03:30pm 14.3 S 5 9 1014.7 - 5.6 - Partly cloudy 10 - - - -
27/03:00pm 15.1 SSE 8 11 1014.3 - 5.6 Recent precip. Mostly cloudy 10 - - - -
27/02:46pm 15.1 SSW 8 11 1014.3 - 5.6 - Partly cloudy 9 - - - -
27/02:38pm 14.4 SSW 7 11 1014.6 - 5.6 - Partly cloudy 6 - - - -
27/02:30pm 14.1 WSW 5 11 1014.7 - 5.4 - Partly cloudy 2 - - - -
27/02:08pm 14.9 SE 6 9 1014.8 - 1.8 - Partly cloudy 4 - - - -
27/02:06pm 14.8 SE 6 9 1014.8 - 1.8 - Partly cloudy 4 - - - -
27/02:00pm 14.9 SE 7 8 1014.8 - 1.8 - Partly cloudy 4 - - - -
27/01:30pm 14.9 SE 4 8 1014.9 - 0.2 - Partly cloudy 4 - - - -
27/01:29pm 15.0 SE 4 8 1014.9 - 0.2 - Partly cloudy 5 - - - -
27/01:26pm 15.0 SE 6 9 1014.9 - 0.2 - Partly cloudy 5 - - - -
27/01:00pm 15.4 SE 8 11 1015.1 - 0.2 - Partly cloudy 8 - - - -
27/12:30pm 16.5 SE 10 14 1015.5 - 0.2 - Partly cloudy 10 - - - -
27/12:00pm 16.8 SE 8 11 1016.3 - 0.2 Recent precip. Mostly clear 8 - - - -
27/11:30am 17.6 E 2 4 1016.8 - 0.0 - Partly cloudy 10 - - - -
27/11:00am 17.4 ESE 2 7 1017.1 - 0.0 - Partly cloudy 10 - - - -
27/10:30am 16.4 CALM 0 0 1017.7 - 0.0 - Partly cloudy 10 - - - -
27/10:00am 15.6 W 4 7 1018.1 - 0.0 - Partly cloudy 10 - - - -
27/09:30am 15.0 WSW 4 7 1018.5 - 0.0 - Partly cloudy 10 - - - -
27/09:00am 14.4 W 7 9 1018.7 - 12.2 - Mostly clear 10 - - - -
27/08:40am 14.4 W 5 8 1019.0 - 12.2 - Partly cloudy 10 - - - -
27/08:30am 13.9 WNW 5 7 1019.2 - 12.2 - Partly cloudy 10 - - - -
27/08:00am 13.3 NW 5 7 1019.3 - 12.2 - Partly cloudy 10 - - - -
27/07:30am 12.6 NW 5 6 1019.1 - 12.2 - Partly cloudy 10 - - - -
27/07:15am 12.2 WNW 4 5 1019.1 - 12.2 - Partly cloudy 10 - - - -
27/07:00am 11.8 W 3 5 1019.2 - 12.2 - - 10 - - - -
27/06:43am 11.9 WNW 4 6 1019.2 - 12.2 - Partly cloudy 10 - - - -
27/06:30am 12.1 WSW 2 5 1019.1 - 12.2 - Partly cloudy 10 - - - -
27/06:00am 12.4 WNW 5 7 1019.1 - 12.2 - Mostly cloudy 10 - - - -
27/05:30am 12.5 NW 5 7 1019.2 - 12.2 - Partly cloudy 10 - - - -
27/05:08am 12.5 CALM 0 0 1019.1 - 12.2 - Partly cloudy 10 - - - -
27/05:00am 12.5 CALM 0 0 1019.1 - 12.2 - Partly cloudy 7 - - - -
27/04:45am 12.6 CALM 0 0 1019.2 - 12.2 - Partly cloudy 5 - - - -
27/04:30am 12.6 CALM 0 0 1019.3 - 12.0 - Partly cloudy 10 - - - -
27/04:08am 12.6 CALM 0 0 1019.5 - 12.0 - Partly cloudy 10 - - - -
27/04:00am 12.6 CALM 0 0 1019.7 - 12.0 - Partly cloudy 7 - - - -
27/03:48am 12.6 CALM 0 0 1019.7 - 12.0 - Partly cloudy 5 - - - -
27/03:40am 12.6 CALM 0 0 1019.8 - 12.0 - Partly cloudy 8 - - - -
27/03:30am 12.6 CALM 0 0 1019.9 - 12.0 - Partly cloudy 5 - - - -
27/03:00am 12.6 SSW 3 5 1020.2 - 11.4 Rain Cloudy 2 - - - -
27/02:30am 12.7 CALM 0 0 1020.7 - 10.6 - Partly cloudy 2 - - - -
27/02:00am 12.6 SW 4 5 1021.0 - 10.0 - Partly cloudy 3 - - - -
27/01:30am 12.6 SSW 5 6 1021.3 - 9.4 - Partly cloudy 3 - - - -
27/01:25am 12.6 SSW 5 6 1021.4 - 9.4 - Partly cloudy 5 - - - -
27/01:23am 12.6 SSW 4 6 1021.4 - 9.4 - Partly cloudy 9 - - - -
27/01:00am 12.6 SSW 3 5 1021.7 - 9.2 - Partly cloudy 2 - - - -
27/12:41am 12.5 CALM 0 0 1021.8 - 7.8 - Partly cloudy 5 - - - -
27/12:30am 12.5 CALM 0 0 1022.0 - 7.4 - Partly cloudy 10 - - - -
27/12:28am 12.5 SSW 1 5 1022.1 - 7.4 - Partly cloudy 10 - - - -
27/12:05am 12.5 SSW 4 6 1022.2 - 7.4 - Partly cloudy 10 - - - -
27/12:00am 12.5 SSW 4 6 1022.2 - 7.4 - Cloudy 10 - - - -
 
Date/Time
EST
Temp

°C
Wind Pressure Rain
since 9am
mm
Weather Cloud Vis
km
Sea
Height
m
Swell
Dir
 
Speed
knots
Gust
knots
hPa Trend Height
m
Period
s
Dir
26/11:33pm 12.6 SSW 5 7 1022.5 - 7.4 - Partly cloudy 5 - - - -
26/11:30pm 12.5 SSW 5 8 1022.5 - 7.4 - Partly cloudy 8 - - - -
26/11:04pm 12.6 SSW 5 6 1023.0 - 7.4 - Partly cloudy 8 - - - -
26/11:00pm 12.6 SSW 5 6 1023.0 - 7.4 - Partly cloudy 8 - - - -
26/10:30pm 12.7 SSW 5 6 1023.6 - 6.4 - Partly cloudy 3 - - - -
26/10:00pm 12.5 S 4 6 1024.0 - 5.8 - Partly cloudy 3 - - - -
26/09:59pm 12.5 S 4 6 1024.0 - 5.8 - Partly cloudy 3 - - - -
26/09:45pm 12.4 SSW 2 5 1024.1 - 5.4 - Partly cloudy 5 - - - -
26/09:30pm 12.4 SSW 4 5 1024.1 - 5.4 - Partly cloudy 10 - - - -
26/09:25pm 12.4 SSW 4 6 1024.1 - 5.4 - Partly cloudy 10 - - - -
26/09:24pm 12.4 SSW 4 6 1024.1 - 5.4 - Partly cloudy 10 - - - -
26/09:00pm 12.4 SSW 5 6 1024.2 - 5.4 Rain Cloudy 6 - - - -
26/08:30pm 12.5 SSW 5 6 1024.3 - 5.2 - Partly cloudy 4 - - - -
26/08:18pm 12.5 SSW 4 6 1024.3 - 4.8 - Partly cloudy 3 - - - -
26/08:13pm 12.5 SSW 5 6 1024.2 - 4.4 - Partly cloudy 5 - - - -
26/08:11pm 12.5 SSW 5 6 1024.2 - 4.2 - Partly cloudy 6 - - - -
26/08:01pm 12.5 SSW 5 7 1024.2 - 4.2 - Partly cloudy 8 - - - -
26/08:00pm 12.5 SSW 5 7 1024.2 - 4.2 - Partly cloudy 8 - - - -
26/07:30pm 12.7 SW 4 6 1024.2 - 3.8 - Partly cloudy 3 - - - -
26/07:26pm 12.7 SSW 4 6 1024.2 - 3.8 - Partly cloudy 3 - - - -
26/07:17pm 12.7 SSW 5 6 1024.2 - 3.6 - Partly cloudy 5 - - - -
26/07:00pm 12.8 SSW 5 6 1024.2 - 3.6 - - 8 - - - -
26/06:30pm 12.9 S 5 7 1024.2 - 3.6 - Partly cloudy 8 - - - -
26/06:22pm 12.9 S 5 7 1024.2 - 3.6 - Partly cloudy 7 - - - -
26/06:00pm 12.9 S 6 8 1024.1 - 3.6 - Mostly cloudy 4 - - - -
26/05:46pm 12.9 S 8 11 1024.0 - 3.6 - Partly cloudy 5 - - - -
26/05:30pm 12.9 S 8 13 1024.0 - 3.6 - Partly cloudy 8 - - - -
26/05:06pm 12.9 S 8 12 1023.9 - 3.6 - Partly cloudy 7 - - - -
26/05:00pm 12.9 S 7 12 1023.9 - 3.6 - Partly cloudy 6 - - - -
26/04:34pm 13.1 S 7 10 1023.9 - 3.6 - Partly cloudy 4 - - - -
26/04:30pm 13.1 S 7 10 1023.9 - 3.6 - Partly cloudy 4 - - - -
26/04:00pm 12.9 S 6 9 1024.1 - 3.4 - Partly cloudy 3 - - - -
26/03:58pm 12.9 S 6 9 1024.2 - 3.2 - Partly cloudy 4 - - - -
26/03:53pm 13.0 S 6 9 1024.1 - 3.2 - Partly cloudy 5 - - - -
26/03:46pm 12.9 SSE 6 8 1024.1 - 3.2 - Partly cloudy 8 - - - -
26/03:30pm 12.9 S 7 11 1024.0 - 3.2 - Partly cloudy 5 - - - -
26/03:28pm 13.0 S 7 11 1024.0 - 3.2 - Partly cloudy 5 - - - -
26/03:02pm 13.0 S 7 11 1024.2 - 3.2 - Partly cloudy 6 - - - -
26/03:00pm 13.1 S 7 11 1024.2 - 3.2 Recent precip. Cloudy 6 - - - -
26/02:30pm 13.4 SSE 9 13 1024.3 - 3.0 - Partly cloudy 5 - - - -
26/02:23pm 13.3 SSE 8 13 1024.4 - 3.0 - Partly cloudy 5 - - - -
26/02:15pm 13.3 S 7 11 1024.4 - 3.0 - Partly cloudy 7 - - - -
26/02:09pm 13.2 S 7 11 1024.4 - 3.0 - Partly cloudy 6 - - - -
26/02:00pm 12.8 S 7 9 1024.4 - 3.0 - Partly cloudy 6 - - - -
26/01:30pm 12.7 S 5 8 1024.8 - 2.2 - Partly cloudy 3 - - - -
26/01:00pm 12.8 SE 7 10 1025.2 - 1.4 - Partly cloudy 2 - - - -
26/12:33pm 13.0 SSE 9 11 1025.5 - 0.6 - Partly cloudy 2 - - - -
26/12:30pm 12.8 SSE 9 11 1025.5 - 0.6 - Partly cloudy 2 - - - -
26/12:00pm 13.3 SSE 11 20 1025.9 - 0.4 - Cloudy 4 - - - -
26/11:54am 13.6 SSE 9 14 1025.9 - 0.4 - Partly cloudy 5 - - - -
26/11:47am 13.5 SSE 9 14 1026.0 - 0.4 - Partly cloudy 6 - - - -
26/11:32am 13.3 SSE 7 10 1026.2 - 0.4 - Partly cloudy 5 - - - -
26/11:30am 13.3 SSE 7 10 1026.2 - 0.4 - Partly cloudy 6 - - - -
26/11:27am 13.3 S 7 9 1026.2 - 0.4 - Partly cloudy 7 - - - -
26/11:10am 12.9 S 6 9 1026.4 - 0.4 - Partly cloudy 5 - - - -
26/11:00am 12.7 S 7 9 1026.5 - 0.4 - Partly cloudy 10 - - - -
26/10:30am 12.6 SSE 10 15 1026.6 - 0.4 - Partly cloudy 6 - - - -
26/10:00am 11.7 S 5 19 1027.0 - 0.4 - Partly cloudy 10 - - - -
26/09:54am 11.4 SSW 4 8 1026.9 - 0.4 - Partly cloudy 9 - - - -
26/09:49am 11.3 S 6 15 1026.9 - 0.4 - Partly cloudy 6 - - - -
26/09:42am 11.2 SW 4 9 1026.9 - 0.2 - Partly cloudy 7 - - - -
26/09:30am 11.1 SSW 1 5 1026.7 - 0.2 - Partly cloudy 4 - - - -
26/09:21am 11.1 S 5 7 1026.8 - 0.0 - Partly cloudy 5 - - - -
26/09:00am 10.9 SW 7 11 1026.5 - 30.4 Recent precip. Cloudy 10 - - - -
26/08:57am 10.9 SW 6 9 1026.6 - 30.4 - Partly cloudy 10 - - - -
26/08:48am 10.8 SW 6 9 1026.6 - 30.4 - Partly cloudy 6 - - - -
26/08:30am 10.7 WSW 6 9 1026.7 - 30.2 - Partly cloudy 3 - - - -
26/08:00am 10.5 SW 6 10 1026.8 - 28.2 - Partly cloudy 3 - - - -
26/07:30am 10.3 SW 5 7 1026.9 - 25.8 - Partly cloudy 3 - - - -
26/07:00am 10.1 SSW 6 8 1026.8 - 24.0 - Cloudy 2 - - - -
26/06:30am 10.1 SSW 5 7 1026.7 - 21.6 - Partly cloudy 2 - - - -
26/06:01am 10.2 SW 5 7 1026.5 - 19.8 - Partly cloudy 2 - - - -
26/06:00am 10.2 SW 5 7 1026.4 - 19.8 Rain Cloudy 2 - - - -
26/05:30am 10.1 SW 7 11 1026.2 - 18.0 - Partly cloudy 4 - - - -
26/05:00am 10.3 SW 6 8 1026.1 - 17.4 - Partly cloudy 4 - - - -
26/04:30am 10.9 S 9 17 1026.0 - 16.4 - Partly cloudy 3 - - - -
26/04:04am 11.6 S 8 15 1025.7 - 15.8 - Partly cloudy 5 - - - -
26/04:00am 11.2 S 6 12 1025.8 - 15.8 - Partly cloudy 8 - - - -
26/03:30am 12.8 SSE 11 18 1025.4 - 15.6 - Partly cloudy 8 - - - -
26/03:00am 13.3 SSE 11 19 1025.4 - 15.6 - Cloudy 9 - - - -
26/02:30am 13.1 SSE 13 19 1025.6 - 15.6 - Cloudy 8 - - - -
26/02:00am 13.1 SSE 13 22 1025.8 - 15.6 - Partly cloudy 8 - - - -
26/01:30am 12.2 S 8 14 1025.9 - 15.6 - Partly cloudy 10 - - - -
26/01:00am 12.0 SSE 13 22 1026.1 - 15.6 - Partly cloudy 6 - - - -
26/12:30am 13.4 SSE 13 19 1026.0 - 15.6 - Partly cloudy 9 - - - -
26/12:00am 12.6 SE 13 21 1026.1 - 15.6 - Cloudy 7 - - - -
 
Date/Time
EST
Temp

°C
Wind Pressure Rain
since 9am
mm
Weather Cloud Vis
km
Sea
Height
m
Swell
Dir
 
Speed
knots
Gust
knots
hPa Trend Height
m
Period
s
Dir
25/11:30pm 13.4 SSE 12 19 1025.9 - 15.6 - Partly cloudy 9 - - - -

Other Formats:

Comma delimited format used in spreadsheet applications
http://www.bom.gov.au/fwo/IDN60701/IDN60701.95929.axf

JavaScript Object Notation format (JSON) in row-major order
http://www.bom.gov.au/fwo/IDN60701/IDN60701.95929.json